sensor_id;sensor_type;location;lat;lon;timestamp;pressure;altitude;pressure_sealevel;temperature;humidity
29985;BME280;17387;42.690;23.328;2022-07-29T00:01:00;47475.91;;;-144.02;79.58
29985;BME280;17387;42.690;23.328;2022-07-29T00:03:26;47445.44;;;-144.02;79.96
29985;BME280;17387;42.690;23.328;2022-07-29T00:05:51;47475.91;;;-144.02;79.58
29985;BME280;17387;42.690;23.328;2022-07-29T00:08:18;47412.94;;;-144.02;79.52
29985;BME280;17387;42.690;23.328;2022-07-29T00:10:44;47425.13;;;-144.02;79.28
29985;BME280;17387;42.690;23.328;2022-07-29T00:13:10;47408.88;;;-144.02;78.88
29985;BME280;17387;42.690;23.328;2022-07-29T00:15:35;47492.16;;;-144.02;78.59
29985;BME280;17387;42.690;23.328;2022-07-29T00:18:01;47433.25;;;-144.02;79.41
29985;BME280;17387;42.690;23.328;2022-07-29T00:20:27;47510.44;;;-144.02;78.92
29985;BME280;17387;42.690;23.328;2022-07-29T00:22:52;47486.06;;;-144.02;78.78
29985;BME280;17387;42.690;23.328;2022-07-29T00:25:18;47447.47;;;-144.02;78.86
29985;BME280;17387;42.690;23.328;2022-07-29T00:27:44;47439.34;;;-144.02;78.60
29985;BME280;17387;42.690;23.328;2022-07-29T00:30:11;47477.94;;;-144.02;78.23
29985;BME280;17387;42.690;23.328;2022-07-29T00:32:37;47471.84;;;-144.02;78.41
29985;BME280;17387;42.690;23.328;2022-07-29T00:35:03;47461.69;;;-144.02;78.67
29985;BME280;17387;42.690;23.328;2022-07-29T00:37:47;47449.50;;;-144.02;78.57
29985;BME280;17387;42.690;23.328;2022-07-29T00:40:12;47477.94;;;-144.02;78.38
29985;BME280;17387;42.690;23.328;2022-07-29T00:42:49;47433.25;;;-144.02;78.49
29985;BME280;17387;42.690;23.328;2022-07-29T00:45:16;47461.69;;;-144.02;79.09
29985;BME280;17387;42.690;23.328;2022-07-29T00:47:42;47486.06;;;-144.02;80.05
29985;BME280;17387;42.690;23.328;2022-07-29T00:50:10;47461.69;;;-144.02;80.69
29985;BME280;17387;42.690;23.328;2022-07-29T00:52:37;47437.31;;;-144.02;82.10
29985;BME280;17387;42.690;23.328;2022-07-29T00:55:05;47492.16;;;-144.02;83.09
29985;BME280;17387;42.690;23.328;2022-07-29T00:57:31;47469.81;;;-144.02;84.55
29985;BME280;17387;42.690;23.328;2022-07-29T00:59:57;47530.75;;;-144.02;85.73
29985;BME280;17387;42.690;23.328;2022-07-29T01:02:22;47455.59;;;-144.02;86.16
29985;BME280;17387;42.690;23.328;2022-07-29T01:04:48;47463.72;;;-144.02;87.05
29985;BME280;17387;42.690;23.328;2022-07-29T01:07:14;47463.72;;;-144.02;87.82
29985;BME280;17387;42.690;23.328;2022-07-29T01:09:41;47469.81;;;-144.02;87.93
29985;BME280;17387;42.690;23.328;2022-07-29T01:12:07;47506.38;;;-144.02;88.59
29985;BME280;17387;42.690;23.328;2022-07-29T01:14:34;47477.94;;;-144.02;89.46
29985;BME280;17387;42.690;23.328;2022-07-29T01:17:08;47502.31;;;-144.02;89.04
29985;BME280;17387;42.690;23.328;2022-07-29T01:20:03;47500.28;;;-144.02;87.76
29985;BME280;17387;42.690;23.328;2022-07-29T01:25:17;47469.81;;;-144.02;87.60
29985;BME280;17387;42.690;23.328;2022-07-29T01:27:57;47475.91;;;-144.02;86.71
29985;BME280;17387;42.690;23.328;2022-07-29T01:30:27;47463.72;;;-144.02;85.73
29985;BME280;17387;42.690;23.328;2022-07-29T01:33:00;47471.84;;;-144.02;85.12
29985;BME280;17387;42.690;23.328;2022-07-29T01:35:33;47488.09;;;-144.02;85.62
29985;BME280;17387;42.690;23.328;2022-07-29T01:38:12;47496.22;;;-144.02;85.35
29985;BME280;17387;42.690;23.328;2022-07-29T01:40:51;47508.41;;;-144.02;85.18
29985;BME280;17387;42.690;23.328;2022-07-29T01:43:23;47457.63;;;-144.02;85.82
29985;BME280;17387;42.690;23.328;2022-07-29T01:46:04;47469.81;;;-144.02;86.01
29985;BME280;17387;42.690;23.328;2022-07-29T01:48:36;47508.41;;;-144.02;86.31
29985;BME280;17387;42.690;23.328;2022-07-29T01:51:12;47473.88;;;-144.02;86.86
29985;BME280;17387;42.690;23.328;2022-07-29T01:53:46;47455.59;;;-144.02;86.40
29985;BME280;17387;42.690;23.328;2022-07-29T01:56:13;47473.88;;;-144.02;86.71
29985;BME280;17387;42.690;23.328;2022-07-29T01:58:41;47477.94;;;-144.02;86.76
29985;BME280;17387;42.690;23.328;2022-07-29T02:01:09;47498.25;;;-144.02;87.44
29985;BME280;17387;42.690;23.328;2022-07-29T02:03:36;47516.53;;;-144.02;87.95
29985;BME280;17387;42.690;23.328;2022-07-29T02:06:04;47494.19;;;-144.02;88.60
29985;BME280;17387;42.690;23.328;2022-07-29T02:08:33;47593.69;;;-144.02;89.57
29985;BME280;17387;42.690;23.328;2022-07-29T02:11:00;47494.19;;;-144.02;89.17
29985;BME280;17387;42.690;23.328;2022-07-29T02:13:27;47490.13;;;-144.02;88.82
29985;BME280;17387;42.690;23.328;2022-07-29T02:15:55;47435.28;;;-144.02;88.72
29985;BME280;17387;42.690;23.328;2022-07-29T02:18:23;47508.41;;;-144.02;88.38
29985;BME280;17387;42.690;23.328;2022-07-29T02:20:52;47477.94;;;-144.02;87.70
29985;BME280;17387;42.690;23.328;2022-07-29T02:23:20;47467.78;;;-144.02;87.14
29985;BME280;17387;42.690;23.328;2022-07-29T02:25:51;47475.91;;;-144.02;86.70
29985;BME280;17387;42.690;23.328;2022-07-29T02:28:18;47494.19;;;-144.02;86.21
29985;BME280;17387;42.690;23.328;2022-07-29T02:30:45;47490.13;;;-144.02;85.37
29985;BME280;17387;42.690;23.328;2022-07-29T02:33:13;47477.94;;;-144.02;85.83
29985;BME280;17387;42.690;23.328;2022-07-29T02:35:40;47469.81;;;-144.02;85.34
29985;BME280;17387;42.690;23.328;2022-07-29T02:38:06;47471.84;;;-144.02;85.02
29985;BME280;17387;42.690;23.328;2022-07-29T02:40:51;47477.94;;;-144.02;85.84
29985;BME280;17387;42.690;23.328;2022-07-29T02:43:19;47492.16;;;-144.02;85.65
29985;BME280;17387;42.690;23.328;2022-07-29T02:45:47;47475.91;;;-144.02;86.20
29985;BME280;17387;42.690;23.328;2022-07-29T02:48:16;47473.88;;;-144.02;86.18
29985;BME280;17387;42.690;23.328;2022-07-29T02:50:50;47482.00;;;-144.02;85.80
29985;BME280;17387;42.690;23.328;2022-07-29T02:53:22;47559.19;;;-144.02;86.39
29985;BME280;17387;42.690;23.328;2022-07-29T02:55:56;47477.94;;;-144.02;86.38
29985;BME280;17387;42.690;23.328;2022-07-29T02:58:45;47506.38;;;-144.02;86.64
29985;BME280;17387;42.690;23.328;2022-07-29T03:01:15;47514.50;;;-144.02;87.51
29985;BME280;17387;42.690;23.328;2022-07-29T03:03:44;47488.09;;;-144.02;87.86
29985;BME280;17387;42.690;23.328;2022-07-29T03:06:12;47510.44;;;-144.02;89.00
29985;BME280;17387;42.690;23.328;2022-07-29T03:08:39;47538.88;;;-144.02;88.89
29985;BME280;17387;42.690;23.328;2022-07-29T03:11:05;47475.91;;;-144.02;88.80
29985;BME280;17387;42.690;23.328;2022-07-29T03:13:32;47534.81;;;-144.02;88.53
29985;BME280;17387;42.690;23.328;2022-07-29T03:15:58;47435.28;;;-144.02;88.61
29985;BME280;17387;42.690;23.328;2022-07-29T03:18:24;47504.34;;;-144.02;88.89
29985;BME280;17387;42.690;23.328;2022-07-29T03:20:51;47465.75;;;-144.02;88.44
29985;BME280;17387;42.690;23.328;2022-07-29T03:23:20;47494.19;;;-144.02;88.16
29985;BME280;17387;42.690;23.328;2022-07-29T03:25:48;47514.50;;;-144.02;87.99
29985;BME280;17387;42.690;23.328;2022-07-29T03:28:14;47494.19;;;-144.02;88.13
29985;BME280;17387;42.690;23.328;2022-07-29T03:30:39;47492.16;;;-144.02;88.06
29985;BME280;17387;42.690;23.328;2022-07-29T03:33:05;47518.56;;;-144.02;88.08
29985;BME280;17387;42.690;23.328;2022-07-29T03:35:31;47425.13;;;-144.02;87.40
29985;BME280;17387;42.690;23.328;2022-07-29T03:37:57;47467.78;;;-144.02;87.15
29985;BME280;17387;42.690;23.328;2022-07-29T03:40:27;47482.00;;;-144.02;86.85
29985;BME280;17387;42.690;23.328;2022-07-29T03:42:54;47465.75;;;-144.02;86.61
29985;BME280;17387;42.690;23.328;2022-07-29T03:45:21;47508.41;;;-144.02;86.88
29985;BME280;17387;42.690;23.328;2022-07-29T03:47:52;47522.63;;;-144.02;86.87
29985;BME280;17387;42.690;23.328;2022-07-29T03:50:19;47473.88;;;-144.02;86.53
29985;BME280;17387;42.690;23.328;2022-07-29T03:52:47;47490.13;;;-144.02;86.26
29985;BME280;17387;42.690;23.328;2022-07-29T03:55:14;47492.16;;;-144.02;85.62
29985;BME280;17387;42.690;23.328;2022-07-29T03:57:40;47506.38;;;-144.02;85.54
29985;BME280;17387;42.690;23.328;2022-07-29T04:00:07;47502.31;;;-144.02;85.41
29985;BME280;17387;42.690;23.328;2022-07-29T04:02:33;47498.25;;;-144.02;84.79
29985;BME280;17387;42.690;23.328;2022-07-29T04:04:59;47475.91;;;-144.02;83.90
29985;BME280;17387;42.690;23.328;2022-07-29T04:07:24;47465.75;;;-144.02;83.24
29985;BME280;17387;42.690;23.328;2022-07-29T04:09:50;47532.78;;;-144.02;81.56
29985;BME280;17387;42.690;23.328;2022-07-29T04:12:15;47492.16;;;-144.02;80.98
29985;BME280;17387;42.690;23.328;2022-07-29T04:14:41;47518.56;;;-144.02;80.17
29985;BME280;17387;42.690;23.328;2022-07-29T04:17:06;47465.75;;;-144.02;79.87
29985;BME280;17387;42.690;23.328;2022-07-29T04:19:32;47522.63;;;-144.02;80.23
29985;BME280;17387;42.690;23.328;2022-07-29T04:21:58;47469.81;;;-144.02;80.02
29985;BME280;17387;42.690;23.328;2022-07-29T04:24:24;47475.91;;;-144.02;80.09
29985;BME280;17387;42.690;23.328;2022-07-29T04:26:50;47445.44;;;-144.02;79.78
29985;BME280;17387;42.690;23.328;2022-07-29T04:29:15;47482.00;;;-144.02;79.42
29985;BME280;17387;42.690;23.328;2022-07-29T04:31:41;47459.66;;;-144.02;78.47
29985;BME280;17387;42.690;23.328;2022-07-29T04:34:07;47530.75;;;-144.02;78.76
29985;BME280;17387;42.690;23.328;2022-07-29T04:36:32;47455.59;;;-144.02;78.03
29985;BME280;17387;42.690;23.328;2022-07-29T04:38:58;47445.44;;;-144.02;77.76
29985;BME280;17387;42.690;23.328;2022-07-29T04:41:24;47465.75;;;-144.02;77.06
29985;BME280;17387;42.690;23.328;2022-07-29T04:43:49;47425.13;;;-144.02;76.68
29985;BME280;17387;42.690;23.328;2022-07-29T04:46:15;47437.31;;;-144.02;75.89
29985;BME280;17387;42.690;23.328;2022-07-29T04:48:41;47459.66;;;-144.02;75.63
29985;BME280;17387;42.690;23.328;2022-07-29T04:51:06;47417.00;;;-144.02;75.73
29985;BME280;17387;42.690;23.328;2022-07-29T04:53:32;47488.09;;;-144.02;75.52
29985;BME280;17387;42.690;23.328;2022-07-29T04:55:57;47502.31;;;-144.02;74.72
29985;BME280;17387;42.690;23.328;2022-07-29T04:58:23;47429.19;;;-144.02;73.02
29985;BME280;17387;42.690;23.328;2022-07-29T05:00:49;47445.44;;;-144.02;72.13
29985;BME280;17387;42.690;23.328;2022-07-29T05:03:14;47390.59;;;-144.02;71.54
29985;BME280;17387;42.690;23.328;2022-07-29T05:05:40;47445.44;;;-144.02;70.66
29985;BME280;17387;42.690;23.328;2022-07-29T05:08:06;47453.56;;;-144.02;70.27
29985;BME280;17387;42.690;23.328;2022-07-29T05:10:31;47441.38;;;-144.02;70.41
29985;BME280;17387;42.690;23.328;2022-07-29T05:12:57;47471.84;;;-144.02;70.41
29985;BME280;17387;42.690;23.328;2022-07-29T05:15:23;47429.19;;;-144.02;69.88
29985;BME280;17387;42.690;23.328;2022-07-29T05:17:49;47417.00;;;-144.02;70.04
29985;BME280;17387;42.690;23.328;2022-07-29T05:20:14;47437.31;;;-144.02;68.67
29985;BME280;17387;42.690;23.328;2022-07-29T05:22:39;47417.00;;;-144.02;68.48
29985;BME280;17387;42.690;23.328;2022-07-29T05:25:05;47433.25;;;-144.02;67.79
29985;BME280;17387;42.690;23.328;2022-07-29T05:27:31;47429.19;;;-144.02;67.47
29985;BME280;17387;42.690;23.328;2022-07-29T05:29:56;47441.38;;;-144.02;67.21
29985;BME280;17387;42.690;23.328;2022-07-29T05:32:22;47455.59;;;-144.02;68.15
29985;BME280;17387;42.690;23.328;2022-07-29T05:34:47;47423.09;;;-144.02;67.10
29985;BME280;17387;42.690;23.328;2022-07-29T05:37:12;47421.06;;;-144.02;67.58
29985;BME280;17387;42.690;23.328;2022-07-29T05:39:39;47443.41;;;-144.02;67.05
29985;BME280;17387;42.690;23.328;2022-07-29T05:42:08;47459.66;;;-144.02;66.70
29985;BME280;17387;42.690;23.328;2022-07-29T05:44:39;47437.31;;;-144.02;65.44
29985;BME280;17387;42.690;23.328;2022-07-29T05:47:05;47445.44;;;-144.02;66.21
29985;BME280;17387;42.690;23.328;2022-07-29T05:49:31;47437.31;;;-144.02;66.22
29985;BME280;17387;42.690;23.328;2022-07-29T05:51:57;47429.19;;;-144.02;66.35
29985;BME280;17387;42.690;23.328;2022-07-29T05:54:23;47414.97;;;-144.02;65.82
29985;BME280;17387;42.690;23.328;2022-07-29T05:56:48;47412.94;;;-144.02;65.59
29985;BME280;17387;42.690;23.328;2022-07-29T05:59:14;47447.47;;;-144.02;64.99
29985;BME280;17387;42.690;23.328;2022-07-29T06:01:39;47400.75;;;-144.02;63.73
29985;BME280;17387;42.690;23.328;2022-07-29T06:04:06;47425.13;;;-144.02;64.00
29985;BME280;17387;42.690;23.328;2022-07-29T06:06:32;47388.56;;;-144.02;63.69
29985;BME280;17387;42.690;23.328;2022-07-29T06:08:57;47439.34;;;-144.02;63.66
29985;BME280;17387;42.690;23.328;2022-07-29T06:11:23;47453.56;;;-144.02;64.59
29985;BME280;17387;42.690;23.328;2022-07-29T06:13:48;47437.31;;;-144.02;63.69
29985;BME280;17387;42.690;23.328;2022-07-29T06:16:13;47441.38;;;-144.02;63.15
29985;BME280;17387;42.690;23.328;2022-07-29T06:18:39;47425.13;;;-144.02;62.61
29985;BME280;17387;42.690;23.328;2022-07-29T06:21:09;47400.75;;;-144.02;62.38
29985;BME280;17387;42.690;23.328;2022-07-29T06:23:38;47419.03;;;-144.02;61.75
29985;BME280;17387;42.690;23.328;2022-07-29T06:26:04;47406.84;;;-144.02;61.58
29985;BME280;17387;42.690;23.328;2022-07-29T06:28:29;47410.91;;;-144.02;62.01
29985;BME280;17387;42.690;23.328;2022-07-29T06:30:55;47408.88;;;-144.02;61.26
29985;BME280;17387;42.690;23.328;2022-07-29T06:33:20;47388.56;;;-144.02;60.27
29985;BME280;17387;42.690;23.328;2022-07-29T06:35:46;47421.06;;;-144.02;60.82
29985;BME280;17387;42.690;23.328;2022-07-29T06:38:14;47408.88;;;-144.02;61.13
29985;BME280;17387;42.690;23.328;2022-07-29T06:40:43;47408.88;;;-144.02;60.64
29985;BME280;17387;42.690;23.328;2022-07-29T06:43:30;47441.38;;;-144.02;61.58
29985;BME280;17387;42.690;23.328;2022-07-29T06:46:11;47433.25;;;-144.02;61.43
29985;BME280;17387;42.690;23.328;2022-07-29T06:48:38;47412.94;;;-144.02;60.61
29985;BME280;17387;42.690;23.328;2022-07-29T06:51:04;47382.47;;;-144.02;59.50
29985;BME280;17387;42.690;23.328;2022-07-29T06:53:31;47404.81;;;-144.02;59.20
29985;BME280;17387;42.690;23.328;2022-07-29T06:55:57;47408.88;;;-144.02;59.24
29985;BME280;17387;42.690;23.328;2022-07-29T06:58:24;47380.44;;;-144.02;58.84
29985;BME280;17387;42.690;23.328;2022-07-29T07:00:51;47404.81;;;-144.02;58.52
29985;BME280;17387;42.690;23.328;2022-07-29T07:03:16;47392.63;;;-144.02;57.79
29985;BME280;17387;42.690;23.328;2022-07-29T07:05:42;47398.72;;;-144.02;56.99
29985;BME280;17387;42.690;23.328;2022-07-29T07:08:08;47366.22;;;-144.02;56.24
29985;BME280;17387;42.690;23.328;2022-07-29T07:10:34;47388.56;;;-144.02;56.57
29985;BME280;17387;42.690;23.328;2022-07-29T07:13:00;47425.13;;;-144.02;56.46
29985;BME280;17387;42.690;23.328;2022-07-29T07:15:27;47372.31;;;-144.02;56.94
29985;BME280;17387;42.690;23.328;2022-07-29T07:17:52;47425.13;;;-144.02;56.88
29985;BME280;17387;42.690;23.328;2022-07-29T07:20:18;47406.84;;;-144.02;56.12
29985;BME280;17387;42.690;23.328;2022-07-29T07:22:43;47352.00;;;-144.02;56.35
29985;BME280;17387;42.690;23.328;2022-07-29T07:25:11;47394.66;;;-144.02;55.41
29985;BME280;17387;42.690;23.328;2022-07-29T07:27:37;47362.16;;;-144.02;55.06
29985;BME280;17387;42.690;23.328;2022-07-29T07:30:04;47347.94;;;-144.02;54.70
29985;BME280;17387;42.690;23.328;2022-07-29T07:32:31;47394.66;;;-144.02;54.09
29985;BME280;17387;42.690;23.328;2022-07-29T07:34:57;47532.78;;;-144.02;53.45
29985;BME280;17387;42.690;23.328;2022-07-29T07:37:23;47386.53;;;-144.02;53.78
29985;BME280;17387;42.690;23.328;2022-07-29T07:39:50;47370.28;;;-144.02;53.84
29985;BME280;17387;42.690;23.328;2022-07-29T07:42:15;47356.06;;;-144.02;54.27
29985;BME280;17387;42.690;23.328;2022-07-29T07:44:41;47388.56;;;-144.02;53.05
29985;BME280;17387;42.690;23.328;2022-07-29T07:47:06;47358.09;;;-144.02;53.71
29985;BME280;17387;42.690;23.328;2022-07-29T07:49:32;47382.47;;;-144.02;53.10
29985;BME280;17387;42.690;23.328;2022-07-29T07:51:57;47388.56;;;-144.02;52.44
29985;BME280;17387;42.690;23.328;2022-07-29T07:54:22;47396.69;;;-144.02;52.68
29985;BME280;17387;42.690;23.328;2022-07-29T07:56:48;47388.56;;;-144.02;52.91
29985;BME280;17387;42.690;23.328;2022-07-29T07:59:15;47362.16;;;-144.02;52.40
29985;BME280;17387;42.690;23.328;2022-07-29T08:01:40;47360.13;;;-144.02;52.96
29985;BME280;17387;42.690;23.328;2022-07-29T08:04:06;47384.50;;;-144.02;52.29
29985;BME280;17387;42.690;23.328;2022-07-29T08:06:32;47364.19;;;-144.02;51.32
29985;BME280;17387;42.690;23.328;2022-07-29T08:09:00;47362.16;;;-144.02;52.03
29985;BME280;17387;42.690;23.328;2022-07-29T08:11:25;47378.41;;;-144.02;51.58
29985;BME280;17387;42.690;23.328;2022-07-29T08:13:51;47358.09;;;-144.02;51.51
29985;BME280;17387;42.690;23.328;2022-07-29T08:16:17;47386.53;;;-144.02;50.75
29985;BME280;17387;42.690;23.328;2022-07-29T08:18:44;47349.97;;;-144.02;49.32
29985;BME280;17387;42.690;23.328;2022-07-29T08:21:10;47380.44;;;-144.02;48.93
29985;BME280;17387;42.690;23.328;2022-07-29T08:23:35;47360.13;;;-144.02;48.38
29985;BME280;17387;42.690;23.328;2022-07-29T08:26:05;47307.31;;;-144.02;48.72
29985;BME280;17387;42.690;23.328;2022-07-29T08:28:31;47333.72;;;-144.02;48.01
29985;BME280;17387;42.690;23.328;2022-07-29T08:30:56;47333.72;;;-144.02;47.55
29985;BME280;17387;42.690;23.328;2022-07-29T08:33:22;47317.47;;;-144.02;46.61
29985;BME280;17387;42.690;23.328;2022-07-29T08:35:47;47287.00;;;-144.02;46.83
29985;BME280;17387;42.690;23.328;2022-07-29T08:38:15;47333.72;;;-144.02;46.87
29985;BME280;17387;42.690;23.328;2022-07-29T08:40:40;47345.91;;;-144.02;46.14
29985;BME280;17387;42.690;23.328;2022-07-29T08:43:08;47329.66;;;-144.02;46.86
29985;BME280;17387;42.690;23.328;2022-07-29T08:45:42;47343.88;;;-144.02;46.86
29985;BME280;17387;42.690;23.328;2022-07-29T08:48:08;47339.81;;;-144.02;45.93
29985;BME280;17387;42.690;23.328;2022-07-29T08:50:35;47305.28;;;-144.02;45.57
29985;BME280;17387;42.690;23.328;2022-07-29T08:53:01;47345.91;;;-144.02;45.30
29985;BME280;17387;42.690;23.328;2022-07-29T08:55:28;47356.06;;;-144.02;44.34
29985;BME280;17387;42.690;23.328;2022-07-29T08:57:54;47337.78;;;-144.02;44.65
29985;BME280;17387;42.690;23.328;2022-07-29T09:00:21;47319.50;;;-144.02;43.91
29985;BME280;17387;42.690;23.328;2022-07-29T09:02:51;47323.56;;;-144.02;43.51
29985;BME280;17387;42.690;23.328;2022-07-29T09:05:23;47321.53;;;-144.02;42.95
29985;BME280;17387;42.690;23.328;2022-07-29T09:07:50;47291.06;;;-144.02;43.00
29985;BME280;17387;42.690;23.328;2022-07-29T09:10:16;47282.94;;;-144.02;42.49
29985;BME280;17387;42.690;23.328;2022-07-29T09:12:42;47293.09;;;-144.02;41.65
29985;BME280;17387;42.690;23.328;2022-07-29T09:15:07;47325.59;;;-144.02;41.34
29985;BME280;17387;42.690;23.328;2022-07-29T09:17:47;47321.53;;;-144.02;41.32
29985;BME280;17387;42.690;23.328;2022-07-29T09:20:20;47311.38;;;-144.02;39.63
29985;BME280;17387;42.690;23.328;2022-07-29T09:22:46;47333.72;;;-144.02;39.69
29985;BME280;17387;42.690;23.328;2022-07-29T09:25:35;47303.25;;;-144.02;39.02
29985;BME280;17387;42.690;23.328;2022-07-29T09:28:09;47347.94;;;-144.02;38.63
29985;BME280;17387;42.690;23.328;2022-07-29T09:30:35;47301.22;;;-144.02;38.41
29985;BME280;17387;42.690;23.328;2022-07-29T09:33:03;47321.53;;;-144.02;39.41
29985;BME280;17387;42.690;23.328;2022-07-29T09:35:30;47303.25;;;-144.02;38.66
29985;BME280;17387;42.690;23.328;2022-07-29T09:37:56;47303.25;;;-144.02;38.62
29985;BME280;17387;42.690;23.328;2022-07-29T09:40:27;47311.38;;;-144.02;38.57
29985;BME280;17387;42.690;23.328;2022-07-29T09:42:52;47313.41;;;-144.02;37.97
29985;BME280;17387;42.690;23.328;2022-07-29T09:45:34;47301.22;;;-144.02;37.87
29985;BME280;17387;42.690;23.328;2022-07-29T09:48:13;47315.44;;;-144.02;38.54
29985;BME280;17387;42.690;23.328;2022-07-29T09:50:39;47291.06;;;-144.02;38.11
29985;BME280;17387;42.690;23.328;2022-07-29T09:53:05;47311.38;;;-144.02;39.34
29985;BME280;17387;42.690;23.328;2022-07-29T09:55:31;47266.69;;;-144.02;38.36
29985;BME280;17387;42.690;23.328;2022-07-29T10:00:42;47323.56;;;-144.02;37.47
29985;BME280;17387;42.690;23.328;2022-07-29T10:03:08;47311.38;;;-144.02;38.56
29985;BME280;17387;42.690;23.328;2022-07-29T10:05:34;47293.09;;;-144.02;37.99
29985;BME280;17387;42.690;23.328;2022-07-29T10:07:59;47293.09;;;-144.02;37.23
29985;BME280;17387;42.690;23.328;2022-07-29T10:10:27;47287.00;;;-144.02;37.17
29985;BME280;17387;42.690;23.328;2022-07-29T10:12:55;47303.25;;;-144.02;36.94
29985;BME280;17387;42.690;23.328;2022-07-29T10:15:27;47282.94;;;-144.02;37.44
29985;BME280;17387;42.690;23.328;2022-07-29T10:17:54;47250.44;;;-144.02;36.80
29985;BME280;17387;42.690;23.328;2022-07-29T10:20:21;47311.38;;;-144.02;36.99
29985;BME280;17387;42.690;23.328;2022-07-29T10:22:48;47264.66;;;-144.02;36.55
29985;BME280;17387;42.690;23.328;2022-07-29T10:25:15;47323.56;;;-144.02;35.98
29985;BME280;17387;42.690;23.328;2022-07-29T10:27:41;47278.88;;;-144.02;35.87
29985;BME280;17387;42.690;23.328;2022-07-29T10:30:08;47258.56;;;-144.02;36.22
29985;BME280;17387;42.690;23.328;2022-07-29T10:32:54;47272.78;;;-144.02;35.89
29985;BME280;17387;42.690;23.328;2022-07-29T10:43:40;47264.66;;;-144.02;34.66
29985;BME280;17387;42.690;23.328;2022-07-29T10:46:07;47311.38;;;-144.02;34.21
29985;BME280;17387;42.690;23.328;2022-07-29T10:48:34;47329.66;;;-144.02;34.61
29985;BME280;17387;42.690;23.328;2022-07-29T10:51:01;47402.78;;;-144.02;33.74
29985;BME280;17387;42.690;23.328;2022-07-29T10:53:50;47266.69;;;-144.02;33.18
29985;BME280;17387;42.690;23.328;2022-07-29T10:56:27;47270.75;;;-144.02;33.46
29985;BME280;17387;42.690;23.328;2022-07-29T11:01:43;47250.44;;;-144.02;32.85
29985;BME280;17387;42.690;23.328;2022-07-29T11:04:09;47258.56;;;-144.02;32.95
29985;BME280;17387;42.690;23.328;2022-07-29T11:07:06;47262.63;;;-144.02;33.37
29985;BME280;17387;42.690;23.328;2022-07-29T11:09:33;47258.56;;;-144.02;33.57
29985;BME280;17387;42.690;23.328;2022-07-29T11:11:59;47270.75;;;-144.02;32.80
29985;BME280;17387;42.690;23.328;2022-07-29T11:14:58;47258.56;;;-144.02;33.25
29985;BME280;17387;42.690;23.328;2022-07-29T11:17:25;47289.03;;;-144.02;32.65
29985;BME280;17387;42.690;23.328;2022-07-29T11:19:51;47230.16;;;-144.02;32.71
29985;BME280;17387;42.690;23.328;2022-07-29T11:22:35;47258.56;;;-144.02;32.51
29985;BME280;17387;42.690;23.328;2022-07-29T11:25:15;47258.56;;;-144.02;32.43
29985;BME280;17387;42.690;23.328;2022-07-29T11:27:41;47234.22;;;-144.02;32.79
29985;BME280;17387;42.690;23.328;2022-07-29T11:30:07;47220.00;;;-144.02;32.58
29985;BME280;17387;42.690;23.328;2022-07-29T11:32:42;47299.19;;;-144.02;32.67
29985;BME280;17387;42.690;23.328;2022-07-29T11:35:21;47282.94;;;-144.02;32.19
29985;BME280;17387;42.690;23.328;2022-07-29T11:38:27;47246.38;;;-144.02;32.27
29985;BME280;17387;42.690;23.328;2022-07-29T11:43:55;47213.91;;;-144.02;32.19
29985;BME280;17387;42.690;23.328;2022-07-29T11:49:21;47276.84;;;-144.02;32.65
29985;BME280;17387;42.690;23.328;2022-07-29T11:51:54;47234.22;;;-144.02;31.64
29985;BME280;17387;42.690;23.328;2022-07-29T11:54:31;47364.19;;;-144.02;31.62
29985;BME280;17387;42.690;23.328;2022-07-29T11:56:58;47230.16;;;-144.02;31.15
29985;BME280;17387;42.690;23.328;2022-07-29T11:59:24;47230.16;;;-144.02;31.43
29985;BME280;17387;42.690;23.328;2022-07-29T12:01:54;47270.75;;;-144.02;31.26
29985;BME280;17387;42.690;23.328;2022-07-29T12:04:19;47236.22;;;-144.02;31.04
29985;BME280;17387;42.690;23.328;2022-07-29T12:06:52;47179.38;;;-144.02;31.32
29985;BME280;17387;42.690;23.328;2022-07-29T12:09:18;47226.09;;;-144.02;31.24
29985;BME280;17387;42.690;23.328;2022-07-29T12:11:45;47242.31;;;-144.02;31.09
29985;BME280;17387;42.690;23.328;2022-07-29T12:14:31;47250.44;;;-144.02;31.22
29985;BME280;17387;42.690;23.328;2022-07-29T12:16:58;47234.22;;;-144.02;30.89
29985;BME280;17387;42.690;23.328;2022-07-29T12:19:24;47315.44;;;-144.02;29.87
29985;BME280;17387;42.690;23.328;2022-07-29T12:21:54;47242.31;;;-144.02;28.91
29985;BME280;17387;42.690;23.328;2022-07-29T12:24:21;47236.22;;;-144.02;27.41
29985;BME280;17387;42.690;23.328;2022-07-29T12:26:54;47152.97;;;-144.02;26.73
29985;BME280;17387;42.690;23.328;2022-07-29T12:29:20;47226.09;;;-144.02;27.10
29985;BME280;17387;42.690;23.328;2022-07-29T12:31:51;47128.59;;;-144.02;26.15
29985;BME280;17387;42.690;23.328;2022-07-29T12:34:20;47161.09;;;-144.02;26.33
29985;BME280;17387;42.690;23.328;2022-07-29T12:36:48;47138.75;;;-144.02;25.58
29985;BME280;17387;42.690;23.328;2022-07-29T12:39:15;47152.97;;;-144.02;25.39
29985;BME280;17387;42.690;23.328;2022-07-29T12:41:42;47128.59;;;-144.02;24.89
29985;BME280;17387;42.690;23.328;2022-07-29T12:44:08;47177.34;;;-144.02;26.43
29985;BME280;17387;42.690;23.328;2022-07-29T12:46:34;47140.78;;;-144.02;25.70
29985;BME280;17387;42.690;23.328;2022-07-29T12:48:59;47114.38;;;-144.02;24.73
29985;BME280;17387;42.690;23.328;2022-07-29T12:51:36;47163.13;;;-144.02;25.55
29985;BME280;17387;42.690;23.328;2022-07-29T12:54:19;47217.97;;;-144.02;25.57
29985;BME280;17387;42.690;23.328;2022-07-29T12:56:45;47120.47;;;-144.02;25.61
29985;BME280;17387;42.690;23.328;2022-07-29T12:59:21;47136.72;;;-144.02;25.83